Flight Track Log - Related Links

Times and Time Zones

All times are in EDT time to prevent confusion due to time zone crossing. See the AWE2185 flight status page for this flight to view local times or setup timezone preferences in your user account.

Time Position Orientation Groundspeed Altitude Reporting Facility
EDT Latitude Longitude Course Direction KTS MPH feet Rate Location/Type
Sun 06:56:40 PM 40.7667 -73.8000 270° West 189 217 2,800  Level New York TRACON
Sun 06:57:40 PM 40.8167 -73.7667 27° Northeast 227 261 5,700 2,448 Climbing New York TRACON
Sun 06:58:00 PM 40.6539 -74.2187 244° Southwest  Level FlightAware Approximate
Sun 06:58:45 PM 40.8333 -73.8500 285° West 269 310 7,900  Level New York TRACON
Sun 06:59:00 PM 40.6113 -74.3356 244° Southwest  Level FlightAware Approximate
Sun 06:59:40 PM 40.8333 -73.9500 270° West 270 311 11,600  Level New York TRACON
Sun 07:00:00 PM 40.5710 -74.4537 246° West  Level FlightAware Approximate
Sun 07:00:40 PM 40.8167 -74.0500 258° West 302 348 14,400  Level New York TRACON
Sun 07:01:00 PM 40.5333 -74.5728 270° West  Level FlightAware Approximate
Sun 07:01:45 PM 40.7667 -74.1667 241° Southwest 314 361 15,000  Level New York TRACON
Sun 07:02:40 PM 40.7167 -74.2667 237° Southwest 398 458 15,100 1,181 Climbing New York TRACON
Sun 07:04:53 PM 40.6125 -74.5244 242° Southwest 395 455 18,700 1,539 Climbing New York Center
Sun 07:05:51 PM 40.5514 -74.6658 240° Southwest 400 460 20,000 655 Climbing New York Center
Sun 07:06:52 PM 40.4972 -74.7967 241° Southwest 405 466 20,000  Level New York Center
Sun 07:07:53 PM 40.4406 -74.9269 240° Southwest 412 474 20,000  Level New York Center
Sun 07:08:53 PM 40.3697 -75.0425 231° Southwest 412 474 20,000  Level New York Center
Sun 07:09:54 PM 40.2950 -75.1494 228° Southwest 412 474 20,000  Level New York Center
Sun 07:10:51 PM 40.2156 -75.2614 227° Southwest 417 480 20,000  Level New York Center
Sun 07:11:52 PM 40.1406 -75.3678 227° Southwest 417 480 20,000  Level New York Center
Sun 07:12:53 PM 40.0633 -75.4767 227° Southwest 417 480 20,000  Level New York Center
Sun 07:13:54 PM 39.9903 -75.5856 229° Southwest 417 480 20,000  Level New York Center
Sun 07:14:51 PM 39.9192 -75.6942 230° Southwest 412 474 20,000 -205 Level New York Center
Sun 07:15:51 PM 39.8494 -75.8111 232° Southwest 413 475 19,600 -900 Descending New York Center
Sun 07:16:51 PM 39.7739 -75.9164 227° Southwest 408 470 18,200 -1,190 Descending New York Center
Sun 07:17:52 PM 39.7092 -76.0169 230° Southwest 408 470 17,200 -1,339 Descending New York Center
Sun 07:18:52 PM 39.6308 -76.1378 230° Southwest 408 470 15,500 -1,636 Descending New York Center
Sun 07:19:53 PM 39.5653 -76.2458 232° Southwest 397 457 13,900 -1,611 Descending New York Center
Sun 07:20:40 PM 39.5000 -76.3333 226° Southwest 380 437 12,600 -1,065 Descending Potomac TRACON
Sun 07:21:40 PM 39.4333 -76.4333 229° Southwest 379 436 12,000 -333 Descending Potomac TRACON
Sun 07:22:46 PM 39.3333 -76.5167 213° Southwest 377 434 11,900 -619 Descending Potomac TRACON
Sun 07:23:46 PM 39.2500 -76.5833 212° Southwest 362 417 10,700 -942 Descending Potomac TRACON
Sun 07:24:47 PM 39.1833 -76.6500 218° Southwest 306 352 10,000 -331 Descending Potomac TRACON
Sun 07:25:53 PM 39.1500 -76.7500 247° West 280 322 10,000 -600 Level Potomac TRACON
Sun 07:26:47 PM 39.1167 -76.8333 243° Southwest 281 323 8,800 -1,043 Descending Potomac TRACON
Sun 07:27:48 PM 39.0833 -76.9333 247° West 279 321 8,000 -1,091 Descending Potomac TRACON
Sun 07:28:48 PM 39.0667 -77.0167 256° West 276 318 6,600 -1,684 Descending Potomac TRACON
Sun 07:29:42 PM 39.0333 -77.1000 243° Southwest 262 302 4,800 -1,304 Descending Potomac TRACON
Sun 07:30:43 PM 39.0000 -77.1667 237° Southwest 219 252 4,100 -843 Descending Potomac TRACON
Sun 07:31:43 PM 38.9667 -77.1667 180° South 173 199 3,100 -1,150 Descending Potomac TRACON
Sun 07:32:43 PM 38.9333 -77.1167 131° Southeast 170 196 1,800 -1,300 Descending Potomac TRACON

Login

Don't have an account? Register now (free) for customized features, flight alerts, and more!